Time;durP1;ratioP1;P1;durP2;ratioP2;P2;SDS_P1;SDS_P2;PMS_P1;PMS_P2;Temp;Humidity;BMP_temperature;BMP_pressure;BME280_temperature;BME280_humidity;BME280_pressure;Samples;Min_cycle;Max_cycle;Signal;HPM_P1;HPM_P2
2022/06/21 00:02:06;;;;;;;4.28;1.75;;;16.00;75.60;;;15.57;100.00;100492.22;4997500;28;20054;-77
2022/06/21 00:04:33;;;;;;;2.30;1.55;;;15.80;75.90;;;15.59;100.00;100500.09;5012742;28;20057;-76
2022/06/21 00:07:04;;;;;;;1.73;1.38;;;15.70;76.20;;;15.57;100.00;100502.84;5012877;28;20418;-78
2022/06/21 00:09:31;;;;;;;3.10;1.90;;;15.70;76.50;;;15.67;100.00;100502.41;5028722;28;20409;-74
2022/06/21 00:11:58;;;;;;;7.25;2.00;;;15.70;76.10;;;15.50;100.00;100500.50;5029280;28;20045;-78
2022/06/21 00:14:25;;;;;;;2.58;1.80;;;15.70;77.10;;;15.50;100.00;100493.41;5045172;28;20042;-76
2022/06/21 00:16:52;;;;;;;2.47;1.80;;;15.70;76.90;;;15.50;100.00;100492.56;4996445;28;20060;-77
2022/06/21 00:19:24;;;;;;;2.90;1.70;;;15.60;77.00;;;15.31;100.00;100488.03;5009349;28;20046;-76
2022/06/21 00:21:51;;;;;;;2.80;1.80;;;15.70;77.90;;;15.26;100.00;100490.00;5029013;28;20132;-76
2022/06/21 00:24:18;;;;;;;3.83;1.95;;;15.50;78.30;;;15.22;100.00;100481.34;5033241;28;20064;-76
2022/06/21 00:26:46;;;;;;;3.08;1.50;;;15.50;78.80;;;15.22;100.00;100486.63;5044030;28;20064;-76
2022/06/21 00:29:14;;;;;;;4.55;2.22;;;15.50;78.90;;;15.16;100.00;100486.88;5030406;28;20048;-77
2022/06/21 00:31:47;;;;;;;2.72;1.88;;;15.40;79.20;;;15.19;100.00;100496.50;5027858;28;20119;-76
2022/06/21 00:34:18;;;;;;;3.20;1.60;;;15.40;79.60;;;15.16;100.00;100501.00;5027901;28;20037;-77
2022/06/21 00:36:48;;;;;;;3.38;1.83;;;15.40;80.10;;;15.14;100.00;100496.69;5028261;28;20037;-77
2022/06/21 00:39:18;;;;;;;4.63;1.90;;;15.30;80.60;;;15.06;100.00;100493.47;5043509;28;20418;-77
2022/06/21 00:42:00;;;;;;;2.97;1.83;;;15.20;80.70;;;14.88;100.00;100491.50;5028265;28;20308;-76
2022/06/21 00:45:07;;;;;;;4.75;1.70;;;15.20;81.30;;;14.94;100.00;100500.13;5043010;28;20044;-76
2022/06/21 00:47:55;;;;;;;2.83;1.50;;;15.70;81.80;;;14.83;100.00;100498.78;4948223;29;20062;-77
2022/06/21 00:50:25;;;;;;;3.05;2.10;;;15.10;82.20;;;14.90;100.00;100494.09;5021927;28;20475;-77
2022/06/21 00:53:18;;;;;;;5.10;1.95;;;15.00;82.80;;;14.84;100.00;100489.91;5027497;28;20045;-77
2022/06/21 00:56:14;;;;;;;2.80;1.70;;;15.00;82.70;;;14.85;100.00;100485.47;5011933;28;20045;-76
2022/06/21 00:58:41;;;;;;;4.30;1.50;;;15.00;83.40;;;14.67;100.00;100477.31;5011129;28;20050;-76
2022/06/21 01:01:29;;;;;;;1.80;1.40;;;15.00;84.10;;;14.76;100.00;100488.50;5013981;28;20053;-76
2022/06/21 01:04:23;;;;;;;2.92;2.28;;;15.00;84.40;;;14.74;100.00;100492.03;5023392;28;20057;-77
2022/06/21 01:06:57;;;;;;;2.17;1.52;;;14.90;84.60;;;14.65;100.00;100484.44;5021462;28;20163;-76
2022/06/21 01:09:47;;;;;;;2.35;1.75;;;14.90;85.10;;;14.79;100.00;100477.78;5026657;28;20087;-76
2022/06/21 01:13:01;;;;;;;2.25;1.65;;;14.90;84.90;;;14.70;100.00;100468.38;5027180;28;20041;-77
2022/06/21 01:15:40;;;;;;;3.15;1.75;;;14.80;85.50;;;14.70;100.00;100457.78;5024173;28;20092;-76
2022/06/21 01:18:09;;;;;;;1.88;1.40;;;16.00;86.30;;;14.79;100.00;100460.09;5011409;28;20045;-77
2022/06/21 01:20:43;;;;;;;2.05;1.50;;;14.90;85.00;;;14.72;100.00;100462.13;5025986;28;20411;-76
2022/06/21 01:23:40;;;;;;;3.22;1.65;;;16.00;86.30;;;14.64;100.00;100476.56;5027716;28;20053;-77
2022/06/21 01:26:29;;;;;;;1.50;1.40;;;14.90;86.30;;;14.55;100.00;100480.44;5026653;28;20045;-76
2022/06/21 01:28:57;;;;;;;4.00;1.52;;;14.90;87.10;;;14.59;100.00;100474.97;5023504;28;20049;-76
2022/06/21 01:31:25;;;;;;;2.60;1.58;;;14.80;86.90;;;14.52;100.00;100472.59;5024223;28;20102;-77
2022/06/21 01:33:52;;;;;;;4.28;1.90;;;14.80;87.40;;;14.42;100.00;100462.38;5008647;28;20378;-76
2022/06/21 01:36:24;;;;;;;3.75;1.98;;;14.80;87.60;;;14.43;100.00;100453.50;5031519;28;20045;-76
2022/06/21 01:38:59;;;;;;;3.63;2.38;;;14.70;87.70;;;14.37;100.00;100453.75;5042890;28;20056;-76
2022/06/21 01:42:02;;;;;;;2.35;1.48;;;14.70;88.00;;;14.36;100.00;100441.44;5027979;28;20045;-76
2022/06/21 01:44:36;;;;;;;2.22;1.52;;;14.60;88.40;;;14.33;100.00;100441.56;5030519;28;20434;-78
2022/06/21 01:47:16;;;;;;;2.63;1.67;;;14.50;88.50;;;14.31;100.00;100431.03;5011079;28;20037;-76
2022/06/21 01:49:53;;;;;;;4.05;1.73;;;14.50;88.80;;;14.29;100.00;100432.03;5026400;28;20498;-76
2022/06/21 01:52:26;;;;;;;2.40;1.55;;;14.90;89.30;;;14.32;100.00;100434.53;5026502;28;20429;-77
2022/06/21 01:55:06;;;;;;;2.55;1.67;;;14.50;89.30;;;14.30;100.00;100431.09;5026944;28;20041;-77
2022/06/21 01:57:34;;;;;;;4.32;2.05;;;14.50;89.80;;;14.21;100.00;100428.78;5026920;28;20040;-77
2022/06/21 02:00:06;;;;;;;3.35;1.85;;;14.50;90.10;;;14.25;100.00;100440.97;5010007;28;20755;-76
2022/06/21 02:02:49;;;;;;;3.22;1.90;;;14.40;90.00;;;14.21;100.00;100434.09;5026913;28;20045;-77
2022/06/21 02:05:25;;;;;;;3.03;1.88;;;14.40;90.30;;;14.17;100.00;100431.56;5029795;28;20077;-77
2022/06/21 02:08:04;;;;;;;3.55;2.00;;;14.40;90.50;;;14.13;100.00;100424.66;5015935;28;20046;-77
2022/06/21 02:10:46;;;;;;;3.55;1.58;;;14.30;90.70;;;14.10;100.00;100427.41;5031124;28;20410;-77
2022/06/21 02:13:16;;;;;;;3.05;2.17;;;14.30;91.00;;;14.06;100.00;100433.75;5015680;28;20048;-76
2022/06/21 02:15:59;;;;;;;2.72;1.80;;;14.20;91.00;;;14.09;100.00;100427.47;5033234;28;20041;-79
2022/06/21 02:18:30;;;;;;;2.97;1.70;;;14.20;91.20;;;14.04;100.00;100417.91;5030457;28;20092;-77
2022/06/21 02:21:12;;;;;;;2.35;1.80;;;14.20;91.30;;;14.07;100.00;100416.09;5013309;28;20675;-79
2022/06/21 02:23:40;;;;;;;3.58;1.90;;;14.20;91.40;;;14.03;100.00;100410.06;5013302;28;20061;-79
2022/06/21 02:26:10;;;;;;;2.65;1.77;;;14.20;91.40;;;14.00;100.00;100412.81;5012845;28;20101;-78
2022/06/21 02:28:37;;;;;;;2.78;2.05;;;14.30;91.70;;;13.95;100.00;100414.75;5017767;28;20085;-77
2022/06/21 02:31:04;;;;;;;4.35;1.95;;;14.20;91.80;;;14.06;100.00;100415.22;5034188;28;20688;-79
2022/06/21 02:33:33;;;;;;;3.40;2.15;;;14.10;91.60;;;13.96;100.00;100409.41;4999901;28;20568;-79
2022/06/21 02:36:14;;;;;;;4.40;1.80;;;14.20;91.90;;;14.03;100.00;100413.53;5031819;28;20497;-78
2022/06/21 02:38:55;;;;;;;4.57;1.98;;;14.10;91.80;;;13.89;100.00;100418.50;5030031;28;20048;-76
2022/06/21 02:41:30;;;;;;;1.98;1.77;;;14.20;92.20;;;13.94;100.00;100423.63;5031359;28;20050;-76
2022/06/21 02:44:23;;;;;;;5.22;2.33;;;14.10;92.20;;;13.92;100.00;100414.88;5014855;28;20516;-79
2022/06/21 02:46:56;;;;;;;2.40;1.63;;;14.10;92.40;;;13.95;100.00;100410.34;5031625;28;20061;-79
2022/06/21 02:49:27;;;;;;;2.13;1.70;;;14.10;92.40;;;13.81;100.00;100416.13;5015236;28;20045;-78
2022/06/21 02:51:59;;;;;;;2.95;2.00;;;14.00;92.50;;;13.83;100.00;100410.78;5031567;28;20073;-78
2022/06/21 02:54:45;;;;;;;4.00;2.13;;;14.80;92.90;;;13.85;100.00;100406.31;5030669;28;20061;-78
2022/06/21 02:57:35;;;;;;;1.92;1.50;;;14.00;92.80;;;13.85;100.00;100393.97;5030863;28;20052;-78
2022/06/21 03:00:07;;;;;;;2.03;1.55;;;14.00;93.00;;;13.81;100.00;100391.47;5031676;28;20064;-78
2022/06/21 03:02:37;;;;;;;1.98;1.52;;;14.00;93.10;;;13.79;100.00;100380.09;5031420;28;20056;-78
2022/06/21 03:05:13;;;;;;;11.40;2.22;;;13.90;93.20;;;13.82;100.00;100378.22;5013242;28;20041;-78
2022/06/21 03:07:48;;;;;;;5.38;1.70;;;13.90;93.30;;;13.84;100.00;100381.66;5014660;28;20052;-78
2022/06/21 03:10:26;;;;;;;2.92;1.90;;;13.90;93.10;;;13.88;100.00;100379.75;5044920;28;20041;-78
2022/06/21 03:13:09;;;;;;;2.75;2.20;;;13.90;93.20;;;13.83;100.00;100379.94;5046693;28;20442;-78
2022/06/21 03:15:41;;;;;;;2.60;1.70;;;14.00;93.40;;;13.83;100.00;100382.59;5045797;28;20042;-78
2022/06/21 03:18:19;;;;;;;2.28;1.77;;;13.90;93.40;;;13.89;100.00;100365.59;4997913;28;20115;-78
2022/06/21 03:20:47;;;;;;;2.47;1.73;;;13.90;93.40;;;13.83;100.00;100358.78;5012452;28;20053;-79
2022/06/21 03:23:15;;;;;;;2.50;1.90;;;14.00;93.30;;;13.81;100.00;100360.59;5030622;28;20050;-77
2022/06/21 03:25:48;;;;;;;3.97;1.88;;;13.30;93.50;;;13.82;100.00;100348.25;5029921;28;20045;-78
2022/06/21 03:28:38;;;;;;;3.38;1.83;;;13.90;93.50;;;13.82;100.00;100343.84;4999730;28;20479;-77
2022/06/21 03:31:23;;;;;;;4.93;1.83;;;14.00;93.50;;;13.88;100.00;100340.06;5028057;28;20045;-77
2022/06/21 03:34:01;;;;;;;3.05;1.80;;;13.90;93.60;;;13.84;100.00;100336.69;5029233;28;20137;-78
2022/06/21 03:36:29;;;;;;;2.85;1.90;;;13.90;93.60;;;13.69;100.00;100347.84;5029119;28;20044;-78
2022/06/21 03:39:19;;;;;;;2.95;1.70;;;14.10;93.50;;;13.81;100.00;100355.31;5012332;28;20406;-77
2022/06/21 03:41:48;;;;;;;;;;;14.50;93.70;;;13.82;100.00;100357.06;5040724;28;20042;-77
2022/06/21 03:44:34;;;;;;;3.88;1.83;;;13.90;93.50;;;13.86;100.00;100345.44;4993243;28;19928;-77
2022/06/21 03:47:23;;;;;;;2.40;1.63;;;13.90;93.70;;;13.92;100.00;100360.22;5028042;28;20056;-77
2022/06/21 03:50:21;;;;;;;3.53;1.75;;;14.00;93.50;;;13.95;100.00;100367.16;5010123;28;20137;-77
2022/06/21 03:53:08;;;;;;;2.65;1.75;;;14.00;93.30;;;13.95;100.00;100354.81;5012621;28;20052;-77
2022/06/21 03:55:55;;;;;;;1.77;1.65;;;14.00;93.50;;;13.96;100.00;100350.34;5013076;28;20042;-77
2022/06/21 03:58:44;;;;;;;2.70;2.10;;;14.00;93.50;;;13.98;100.00;100359.13;5013596;28;20049;-77
2022/06/21 04:02:00;;;;;;;3.60;1.80;;;14.00;93.30;;;13.98;100.00;100353.84;5025414;28;20059;-77
2022/06/21 04:05:00;;;;;;;2.72;1.75;;;14.00;93.40;;;14.02;100.00;100342.19;5028153;28;20049;-77
2022/06/21 04:07:52;;;;;;;1.92;1.73;;;14.00;93.50;;;14.07;100.00;100334.94;5012710;28;20064;-78
2022/06/21 04:10:31;;;;;;;2.97;1.90;;;14.10;93.50;;;13.99;100.00;100340.53;5011504;28;20045;-76
2022/06/21 04:13:54;;;;;;;3.15;1.48;;;14.10;93.50;;;14.11;100.00;100340.97;5043702;28;20128;-76
2022/06/21 04:16:48;;;;;;;2.35;1.80;;;14.10;93.20;;;14.15;100.00;100342.56;5018626;28;20513;-78
2022/06/21 04:19:34;;;;;;;2.17;1.73;;;14.10;93.10;;;14.23;100.00;100342.28;5012647;28;20052;-76
2022/06/21 04:22:09;;;;;;;2.85;1.70;;;14.20;93.20;;;14.23;100.00;100337.84;5022161;28;20708;-79
2022/06/21 04:24:49;;;;;;;4.95;2.00;;;14.30;93.00;;;14.31;100.00;100348.97;5010671;28;20042;-77
2022/06/21 04:27:35;;;;;;;2.58;1.80;;;14.30;93.00;;;14.31;100.00;100333.09;5042277;28;20140;-78
2022/06/21 04:30:17;;;;;;;5.43;1.92;;;14.40;93.00;;;14.40;100.00;100339.81;5014562;28;20117;-78
2022/06/21 04:33:02;;;;;;;3.38;1.70;;;14.40;93.00;;;14.41;100.00;100341.53;5031771;28;20059;-78
2022/06/21 04:35:37;;;;;;;2.45;1.70;;;14.90;93.00;;;14.50;100.00;100340.28;5028310;28;20049;-78
2022/06/21 04:38:34;;;;;;;2.78;1.90;;;14.50;92.90;;;14.56;100.00;100352.41;5028662;28;20045;-78
2022/06/21 04:41:17;;;;;;;5.18;1.60;;;14.60;92.90;;;14.64;100.00;100350.31;5008683;28;20069;-78
2022/06/21 04:43:58;;;;;;;2.63;1.85;;;14.60;92.50;;;14.67;100.00;100347.53;5021118;28;20052;-78
2022/06/21 04:46:58;;;;;;;3.58;1.85;;;14.70;92.70;;;14.84;100.00;100343.38;5027829;28;20526;-78
2022/06/21 04:49:45;;;;;;;3.95;1.75;;;14.80;92.70;;;14.92;100.00;100337.75;5043908;28;20149;-78
2022/06/21 04:52:29;;;;;;;3.42;1.83;;;14.80;92.40;;;14.91;100.00;100334.25;5028552;28;20505;-71
2022/06/21 04:54:56;;;;;;;4.30;1.70;;;14.90;92.50;;;14.92;100.00;100345.69;5010366;28;20421;-70
2022/06/21 04:57:28;;;;;;;3.08;1.50;;;15.30;92.60;;;14.94;100.00;100344.69;5019402;28;20398;-70
2022/06/21 05:00:03;;;;;;;2.72;1.95;;;15.00;92.80;;;14.97;100.00;100344.56;5010470;28;20060;-71
2022/06/21 05:02:38;;;;;;;2.08;1.48;;;15.00;92.50;;;15.02;100.00;100350.53;5027333;28;20128;-70
2022/06/21 05:05:31;;;;;;;2.78;1.90;;;15.10;92.50;;;15.17;100.00;100354.31;5011044;28;20103;-72
2022/06/21 05:08:19;;;;;;;4.68;2.00;;;15.10;92.40;;;15.18;100.00;100349.84;5026894;28;20049;-72
2022/06/21 05:10:52;;;;;;;3.40;2.28;;;15.60;92.60;;;15.14;100.00;100359.75;5027672;28;20124;-71
2022/06/21 05:13:26;;;;;;;4.63;1.63;;;15.20;92.20;;;15.10;100.00;100367.91;5022455;28;20038;-71
2022/06/21 05:15:56;;;;;;;2.75;1.65;;;15.20;92.40;;;15.19;100.00;100375.44;5011942;28;20594;-78
2022/06/21 05:18:30;;;;;;;2.67;1.73;;;15.20;92.30;;;15.29;100.00;100365.28;5028056;28;20046;-78
2022/06/21 05:21:13;;;;;;;3.05;1.70;;;15.20;92.00;;;15.34;100.00;100365.97;5029228;28;20045;-77
2022/06/21 05:23:41;;;;;;;2.80;1.80;;;15.30;92.10;;;15.38;100.00;100364.03;5027561;28;20049;-77
2022/06/21 05:26:22;;;;;;;2.50;1.80;;;15.30;91.80;;;15.45;100.00;100376.09;5027597;28;20490;-77
2022/06/21 05:28:56;;;;;;;4.20;1.90;;;15.40;91.80;;;15.50;100.00;100366.13;5028554;28;20045;-78
2022/06/21 05:31:32;;;;;;;3.30;1.77;;;15.50;91.60;;;15.60;100.00;100345.34;5027604;28;20067;-77
2022/06/21 05:34:08;;;;;;;4.10;2.42;;;15.50;91.40;;;15.65;100.00;100348.69;5027801;28;20168;-77
2022/06/21 05:36:42;;;;;;;2.03;1.80;;;15.60;91.30;;;15.70;100.00;100351.13;5027792;28;20045;-78
2022/06/21 05:39:22;;;;;;;2.63;1.67;;;15.70;90.90;;;15.78;100.00;100343.66;5028691;28;20130;-78
2022/06/21 05:41:54;;;;;;;3.42;1.80;;;15.70;90.90;;;15.82;100.00;100334.63;5012220;28;20050;-78
2022/06/21 05:44:34;;;;;;;9.27;2.00;;;15.70;90.70;;;15.91;100.00;100332.50;5023986;28;20068;-78
2022/06/21 05:47:12;;;;;;;3.20;1.70;;;15.80;90.60;;;15.88;100.00;100339.66;5009912;28;20149;-78
2022/06/21 05:49:41;;;;;;;6.30;2.55;;;15.80;90.70;;;15.96;100.00;100338.47;4992629;28;20053;-77
2022/06/21 05:52:20;;;;;;;3.47;1.63;;;15.90;90.50;;;16.04;100.00;100340.75;4992148;28;20053;-77
2022/06/21 05:55:00;;;;;;;4.03;2.00;;;15.90;90.30;;;16.13;100.00;100332.38;4992454;28;20053;-77
2022/06/21 05:57:46;;;;;;;1.98;1.70;;;16.00;90.30;;;16.24;100.00;100331.84;5007987;28;20561;-78
2022/06/21 06:00:52;;;;;;;4.88;1.60;;;16.10;90.40;;;16.37;100.00;100325.00;5009164;28;20037;-77
2022/06/21 06:03:39;;;;;;;3.70;2.08;;;16.20;90.40;;;16.48;100.00;100336.91;5009408;28;20077;-78
2022/06/21 06:06:16;;;;;;;2.85;1.90;;;16.30;90.40;;;16.53;100.00;100351.66;5000192;28;20048;-77
2022/06/21 06:09:10;;;;;;;5.32;2.10;;;16.30;90.10;;;16.64;100.00;100363.53;5008447;28;20049;-76
2022/06/21 06:11:59;;;;;;;3.30;1.77;;;16.40;89.70;;;16.78;100.00;100371.69;5008596;28;20149;-79
2022/06/21 06:15:01;;;;;;;4.35;1.90;;;16.60;89.70;;;16.84;100.00;100376.69;5013075;28;20145;-79
2022/06/21 06:17:52;;;;;;;4.15;1.70;;;16.60;89.00;;;16.94;100.00;100368.25;5012164;28;20050;-78
2022/06/21 06:20:56;;;;;;;3.03;2.05;;;16.70;88.70;;;17.10;100.00;100363.06;5009428;28;20076;-79
2022/06/21 06:23:38;;;;;;;4.85;1.50;;;16.90;88.40;;;17.15;100.00;100369.84;5009500;28;20900;-79
2022/06/21 06:26:34;;;;;;;4.22;1.90;;;17.00;88.10;;;17.26;100.00;100376.41;5013887;28;20052;-77
2022/06/21 06:29:24;;;;;;;3.28;1.40;;;17.10;87.90;;;17.35;100.00;100360.00;5024516;28;20069;-76
2022/06/21 06:32:19;;;;;;;5.22;1.80;;;17.10;87.40;;;17.45;99.10;100363.00;5008036;28;20705;-76
2022/06/21 06:34:52;;;;;;;4.05;1.75;;;17.20;86.90;;;17.47;98.48;100362.91;5007546;28;20531;-77
2022/06/21 06:37:36;;;;;;;3.45;1.70;;;17.30;86.40;;;17.56;98.33;100352.66;5023086;28;20041;-77
2022/06/21 06:40:30;;;;;;;3.05;1.92;;;17.40;86.50;;;17.63;97.15;100366.47;5010950;28;20769;-77
2022/06/21 06:43:10;;;;;;;4.15;1.65;;;17.40;86.10;;;17.69;97.81;100371.47;5026477;28;20176;-77
2022/06/21 06:45:40;;;;;;;5.53;2.77;;;17.50;86.20;;;17.74;97.18;100378.34;5027262;28;20046;-77
2022/06/21 06:48:16;;;;;;;;;;;17.60;86.40;;;17.85;95.31;100387.47;5026953;28;20288;-77
2022/06/21 06:51:37;;;;;;;4.28;1.70;;;17.60;85.60;;;17.94;94.16;100377.28;5028341;28;19928;-77
2022/06/21 06:54:12;;;;;;;3.33;1.75;;;17.70;85.50;;;18.00;94.42;100376.91;5023814;28;20092;-78
2022/06/21 06:56:54;;;;;;;3.38;1.63;;;17.80;85.30;;;18.12;91.84;100368.28;5014808;28;20033;-77
2022/06/21 06:59:24;;;;;;;6.60;2.65;;;17.90;84.70;;;18.27;92.43;100360.38;5029741;28;20140;-77
2022/06/21 07:02:15;;;;;;;3.03;1.75;;;18.00;85.00;;;18.51;91.12;100367.94;5013836;28;20055;-77
2022/06/21 07:04:49;;;;;;;6.72;2.42;;;18.10;84.80;;;18.69;88.34;100369.53;5046072;28;20494;-78
2022/06/21 07:07:36;;;;;;;5.95;1.83;;;18.30;84.30;;;18.93;87.64;100369.03;5011661;28;20486;-77
2022/06/21 07:10:11;;;;;;;5.75;1.70;;;18.60;84.20;;;19.09;80.59;100370.81;5045320;28;20441;-77
2022/06/21 07:12:39;;;;;;;3.72;1.98;;;18.70;82.50;;;19.19;79.88;100373.78;5047438;28;20450;-78
2022/06/21 07:15:12;;;;;;;4.45;2.45;;;18.90;82.30;;;19.25;78.04;100374.28;5047281;28;20072;-77
2022/06/21 07:17:55;;;;;;;4.65;1.88;;;19.00;81.70;;;19.25;79.12;100357.44;5031653;28;20047;-78
2022/06/21 07:20:49;;;;;;;5.00;1.90;;;19.10;81.60;;;19.26;75.11;100325.31;5030055;28;20041;-77
2022/06/21 07:23:24;;;;;;;3.65;1.50;;;19.20;80.30;;;19.30;75.08;100263.81;5013122;28;20580;-77
2022/06/21 07:26:24;;;;;;;6.68;1.80;;;19.20;80.20;;;19.52;74.52;100185.94;5049137;28;20041;-77
2022/06/21 07:29:14;;;;;;;3.75;1.70;;;19.30;80.40;;;19.55;72.47;100197.25;5014635;28;20060;-78
2022/06/21 07:32:08;;;;;;;3.38;1.95;;;19.50;80.10;;;19.64;72.65;100299.03;5031273;28;20072;-77
2022/06/21 07:34:50;;;;;;;4.07;2.03;;;19.50;79.50;;;19.67;79.31;100322.84;5030487;28;20041;-76
2022/06/21 07:37:20;;;;;;;2.95;2.05;;;19.60;80.80;;;19.75;82.29;100287.66;5029729;28;20045;-76
2022/06/21 07:40:21;;;;;;;7.47;1.85;;;19.60;81.20;;;19.72;80.30;100274.50;5030665;28;20052;-76
2022/06/21 07:43:11;;;;;;;3.60;1.70;;;19.70;80.90;;;19.89;79.73;100273.41;5025317;28;20490;-76
2022/06/21 07:45:51;;;;;;;6.65;1.92;;;19.70;80.70;;;19.93;78.78;100270.47;5047479;28;20380;-76
2022/06/21 07:48:20;;;;;;;2.35;1.52;;;19.90;80.70;;;20.15;77.41;100260.22;5048444;28;20121;-77
2022/06/21 07:51:22;;;;;;;7.18;2.25;;;19.90;80.60;;;20.17;76.21;100251.16;5034283;28;20049;-76
2022/06/21 07:53:58;;;;;;;3.20;1.80;;;20.00;80.20;;;20.41;70.76;100245.09;5036360;28;20065;-77
2022/06/21 07:56:38;;;;;;;4.82;1.98;;;20.10;79.00;;;20.41;64.49;100242.44;5030963;28;20052;-79
2022/06/21 07:59:22;;;;;;;4.25;1.70;;;20.20;77.40;;;20.54;61.93;100240.66;5012848;28;20080;-77
2022/06/21 08:07:49;;;;;;;4.80;2.28;;;20.60;75.40;;;20.79;56.45;100272.84;5029729;28;20141;-77
2022/06/21 08:10:25;;;;;;;9.30;2.33;;;20.70;74.60;;;20.51;57.03;100267.59;5012913;28;20133;-76
2022/06/21 08:12:55;;;;;;;4.45;1.80;;;20.60;73.90;;;20.47;58.54;100268.75;5010262;28;20062;-77
2022/06/21 08:15:30;;;;;;;4.15;1.75;;;21.30;74.80;;;20.52;58.60;100269.28;4993101;28;20048;-76
2022/06/21 08:18:13;;;;;;;2.80;1.70;;;20.50;74.50;;;20.66;59.57;100278.19;5009879;28;20042;-77
2022/06/21 08:20:57;;;;;;;5.05;2.20;;;20.50;75.00;;;20.76;59.01;100279.28;5009719;28;20136;-76
2022/06/21 08:23:46;;;;;;;3.38;1.88;;;20.50;74.80;;;20.93;58.73;100264.78;4993635;28;20116;-76
2022/06/21 08:26:22;;;;;;;5.60;2.10;;;20.60;74.90;;;20.99;57.88;100258.16;5025125;28;20046;-76
2022/06/21 08:28:57;;;;;;;5.45;2.00;;;20.70;74.50;;;21.19;57.52;100261.22;5008568;28;20045;-76
2022/06/21 08:31:34;;;;;;;3.78;1.85;;;20.80;74.50;;;21.33;55.05;100263.78;5008081;28;20054;-77
2022/06/21 08:34:13;;;;;;;6.53;2.45;;;21.00;73.70;;;21.59;56.02;100270.91;5024538;28;20144;-77
2022/06/21 08:37:04;;;;;;;3.20;1.75;;;21.10;74.20;;;21.78;53.81;100260.63;5020338;28;20096;-76
2022/06/21 08:39:47;;;;;;;2.63;1.50;;;21.30;73.40;;;22.02;53.70;100254.41;5029569;28;20037;-75
2022/06/21 08:43:05;;;;;;;5.88;1.70;;;21.60;73.50;;;22.19;53.56;100245.13;5028138;28;20055;-75
2022/06/21 08:46:15;;;;;;;4.40;1.60;;;21.70;73.50;;;22.31;53.76;100245.16;5027332;28;20140;-75
2022/06/21 08:49:17;;;;;;;3.58;1.85;;;21.90;73.20;;;22.35;52.79;100242.13;5027681;28;20129;-76
2022/06/21 08:52:11;;;;;;;3.90;2.00;;;22.10;72.60;;;22.35;53.08;100242.13;5027343;28;20052;-76
2022/06/21 08:55:25;;;;;;;5.72;1.90;;;22.10;72.50;;;22.46;54.29;100235.09;5027711;28;20045;-76
2022/06/21 08:58:05;;;;;;;6.07;2.20;;;22.20;73.20;;;22.44;54.76;100229.84;5008943;28;20089;-75
2022/06/21 09:00:37;;;;;;;3.05;1.80;;;22.20;72.80;;;22.45;53.96;100238.75;5026156;28;20443;-76
2022/06/21 09:03:38;;;;;;;5.75;1.77;;;22.20;72.30;;;22.52;54.53;100232.84;5028036;28;20045;-75
2022/06/21 09:06:23;;;;;;;3.83;1.98;;;22.30;73.10;;;22.59;54.48;100229.69;4989549;28;20049;-76
2022/06/21 09:08:59;;;;;;;4.30;2.30;;;22.30;72.70;;;22.61;54.52;100225.91;5028083;28;20515;-75
2022/06/21 09:11:41;;;;;;;4.35;1.75;;;22.40;72.50;;;22.74;54.65;100235.69;5028455;28;20037;-77
2022/06/21 09:14:30;;;;;;;4.72;2.22;;;22.50;72.40;;;22.88;53.92;100229.25;5025612;28;20099;-76
2022/06/21 09:17:06;;;;;;;3.75;1.98;;;22.60;72.40;;;22.97;53.29;100236.59;5020528;28;20037;-77
2022/06/21 09:20:04;;;;;;;5.82;1.80;;;22.60;72.20;;;23.13;53.93;100235.38;5030615;28;20059;-76
2022/06/21 09:23:18;;;;;;;4.20;1.80;;;22.80;72.40;;;23.31;54.11;100228.56;5011901;28;20053;-76
2022/06/21 09:26:09;;;;;;;3.90;1.58;;;22.90;72.60;;;23.41;51.11;100223.31;5028745;28;20478;-76
2022/06/21 09:29:18;;;;;;;6.07;1.70;;;23.10;71.60;;;23.51;50.26;100194.75;5018795;28;20064;-76
2022/06/21 09:32:10;;;;;;;4.53;1.88;;;23.20;70.80;;;23.62;49.81;100191.16;5024927;28;20030;-76
2022/06/21 09:35:07;;;;;;;6.80;2.35;;;23.30;70.60;;;23.58;48.17;100184.34;5027102;28;20064;-76
2022/06/21 09:37:47;;;;;;;5.60;2.10;;;23.40;69.70;;;23.64;49.01;100183.84;5028296;28;20052;-77
2022/06/21 09:40:23;;;;;;;7.32;2.55;;;23.40;69.90;;;23.71;48.92;100178.81;5031960;28;20449;-78
2022/06/21 09:43:20;;;;;;;5.18;2.05;;;23.40;69.80;;;23.77;48.47;100188.19;5031335;28;20064;-78
2022/06/21 09:46:13;;;;;;;7.60;2.22;;;23.50;69.50;;;23.69;48.06;100174.53;5031073;28;20495;-77
2022/06/21 09:49:16;;;;;;;4.15;2.10;;;23.50;69.00;;;23.73;46.93;100186.75;5025494;28;20050;-77
2022/06/21 09:52:07;;;;;;;8.73;2.20;;;23.50;68.10;;;23.86;46.08;100191.97;5003768;28;20113;-78
2022/06/21 09:54:37;;;;;;;5.03;2.17;;;23.50;67.90;;;23.97;46.55;100188.38;5038846;28;20546;-77
2022/06/21 09:57:31;;;;;;;5.30;1.92;;;23.50;68.20;;;24.08;46.26;100196.41;5052823;28;20442;-78
2022/06/21 10:00:06;;;;;;;4.50;2.05;;;23.60;68.10;;;24.16;45.73;100198.47;5032692;28;20041;-78
2022/06/21 10:03:22;;;;;;;5.80;2.03;;;23.80;67.80;;;24.29;44.78;100191.06;5034738;28;20133;-77
2022/06/21 10:06:11;;;;;;;3.47;1.80;;;23.90;67.20;;;24.32;44.48;100214.13;5001073;28;20104;-77
2022/06/21 10:09:04;;;;;;;6.53;2.80;;;24.00;66.80;;;24.47;44.68;100212.00;5038207;28;20049;-78
2022/06/21 10:12:15;;;;;;;4.18;1.77;;;24.10;67.00;;;24.53;44.27;100210.63;4984039;28;20091;-78
2022/06/21 10:15:23;;;;;;;3.72;2.22;;;24.10;66.60;;;24.65;43.25;100198.78;5029556;28;20103;-78
2022/06/21 10:18:22;;;;;;;5.18;1.73;;;24.30;66.20;;;24.85;43.55;100205.16;5031495;28;20050;-77
2022/06/21 10:21:14;;;;;;;4.90;1.95;;;24.30;66.10;;;24.90;42.35;100199.38;5035554;28;20037;-78
2022/06/21 10:24:05;;;;;;;5.57;2.08;;;24.40;66.00;;;24.96;42.15;100192.59;5030146;28;20120;-75
2022/06/21 10:27:20;;;;;;;4.65;2.28;;;24.50;64.80;;;25.20;42.72;100184.19;5031708;28;20558;-77
2022/06/21 10:30:43;;;;;;;4.15;2.00;;;24.70;65.80;;;25.40;41.89;100189.63;5038398;28;20044;-76
2022/06/21 10:33:45;;;;;;;5.05;2.25;;;24.80;64.80;;;25.36;42.09;100183.66;5035440;28;20584;-79
2022/06/21 10:36:37;;;;;;;6.97;1.85;;;24.90;64.80;;;25.38;42.89;100167.38;5020627;28;20465;-77
2022/06/21 10:39:26;;;;;;;3.60;1.67;;;24.90;65.10;;;25.52;41.41;100180.47;5036714;28;20045;-76
2022/06/21 10:45:40;;;;;;;3.30;1.50;;;25.10;63.60;;;25.67;41.49;100161.22;5037888;28;20045;-77
2022/06/21 10:48:42;;;;;;;5.35;1.95;;;25.20;64.10;;;25.58;39.72;100150.28;5037597;28;20049;-77
2022/06/21 10:51:36;;;;;;;4.00;2.00;;;25.20;62.40;;;25.83;41.04;100147.19;5002859;28;20117;-77
2022/06/21 10:54:27;;;;;;;5.75;1.48;;;25.30;63.60;;;25.94;40.62;100144.34;5036961;28;20053;-77
2022/06/21 10:57:29;;;;;;;5.68;2.17;;;25.50;63.50;;;26.15;39.73;100130.72;5018426;28;20052;-77
2022/06/21 11:04:17;;;;;;;6.10;2.20;;;25.80;62.40;;;26.44;39.27;100134.34;5027157;28;20120;-78
2022/06/21 11:07:46;;;;;;;3.58;1.90;;;26.00;62.20;;;26.33;39.67;100124.59;5026361;28;20378;-77
2022/06/21 11:10:24;;;;;;;3.25;1.88;;;26.00;62.10;;;26.61;38.86;100122.78;5014423;28;20081;-77
2022/06/21 11:12:56;;;;;;;2.55;1.75;;;26.10;61.70;;;26.79;38.63;100122.03;5002252;28;20592;-78
2022/06/21 11:16:38;;;;;;;5.63;1.90;;;26.50;61.90;;;27.17;37.99;100116.63;4985281;28;20176;-77
2022/06/21 11:19:31;;;;;;;4.00;2.00;;;26.50;61.30;;;27.34;37.84;100119.50;5009712;28;20061;-77
2022/06/21 11:23:09;;;;;;;4.18;1.85;;;26.70;61.30;;;27.41;37.65;100120.56;5001729;28;20056;-77
2022/06/21 11:26:03;;;;;;;6.47;2.17;;;26.90;60.80;;;27.70;37.34;100119.53;4924032;29;20828;-77
2022/06/21 11:29:20;;;;;;;4.72;1.80;;;27.10;60.40;;;27.78;37.70;100113.34;4935594;28;20162;-78
2022/06/21 11:32:18;;;;;;;4.32;2.28;;;27.30;60.80;;;27.78;38.06;100091.75;4979637;28;20191;-77
2022/06/21 11:35:21;;;;;;;2.92;1.80;;;27.40;60.80;;;27.58;38.36;100097.31;4977617;28;20046;-78